Time;durP1;ratioP1;P1;durP2;ratioP2;P2;SDS_P1;SDS_P2;PMS_P1;PMS_P2;Temp;Humidity;BMP_temperature;BMP_pressure;BME280_temperature;BME280_humidity;BME280_pressure;Samples;Min_cycle;Max_cycle;Signal;HPM_P1;HPM_P2
2021/04/10 00:01:55;;;;;;;10.35;3.85;;;;;;;-1.64;100.00;99716.31;5051630;28;20485;-75
2021/04/10 00:04:58;;;;;;;3.13;2.88;;;;;;;-1.69;100.00;99726.88;5051846;28;20048;-74
2021/04/10 00:08:02;;;;;;;7.97;3.60;;;;;;;-1.75;100.00;99728.44;5055915;28;20096;-75
2021/04/10 00:11:06;;;;;;;3.63;3.30;;;;;;;-1.80;100.00;99728.84;5055929;28;20044;-74
2021/04/10 00:14:13;;;;;;;1.90;1.90;;;;;;;-1.83;100.00;99733.16;5054797;28;20060;-75
2021/04/10 00:17:16;;;;;;;3.00;2.80;;;;;;;-1.83;100.00;99732.38;5054917;28;20048;-74
2021/04/10 00:20:21;;;;;;;1.38;1.38;;;;;;;-1.82;100.00;99726.50;5054926;28;20056;-75
2021/04/10 00:23:25;;;;;;;2.25;2.15;;;;;;;-1.76;100.00;99722.22;5054653;28;20048;-75
2021/04/10 00:26:28;;;;;;;1.98;1.85;;;;;;;-1.73;100.00;99721.41;5053810;28;20049;-74
2021/04/10 00:29:31;;;;;;;1.40;1.40;;;;;;;-1.72;100.00;99724.91;5054403;28;20055;-76
2021/04/10 00:32:35;;;;;;;1.75;1.75;;;;;;;-1.72;100.00;99722.19;5054029;28;20378;-74
2021/04/10 00:35:39;;;;;;;6.03;1.75;;;;;;;-1.70;100.00;99723.34;5055392;28;20056;-74
2021/04/10 00:38:42;;;;;;;24.02;2.78;;;;;;;-1.70;100.00;99726.09;5055021;28;20052;-75
2021/04/10 00:41:46;;;;;;;1.52;1.52;;;;;;;-1.70;100.00;99728.81;5054200;28;20047;-74
2021/04/10 00:44:49;;;;;;;1.65;1.65;;;;;;;-1.74;100.00;99724.53;5054252;28;20413;-75
2021/04/10 00:47:53;;;;;;;5.57;3.35;;;;;;;-1.80;100.00;99717.94;5054954;28;20052;-75
2021/04/10 00:50:57;;;;;;;14.05;2.08;;;;;;;-1.84;100.00;99720.66;5053859;28;20060;-74
2021/04/10 00:54:01;;;;;;;1.33;1.33;;;;;;;-1.89;100.00;99721.09;5054122;28;20437;-74
2021/04/10 00:57:05;;;;;;;2.50;2.40;;;;;;;-1.95;100.00;99725.38;5054829;28;20064;-79
2021/04/10 01:00:09;;;;;;;1.50;1.50;;;;;;;-2.02;100.00;99730.88;5054798;28;20405;-75
2021/04/10 01:03:13;;;;;;;4.68;2.83;;;;;;;-2.07;100.00;99728.53;5054693;28;20389;-75
2021/04/10 01:06:16;;;;;;;1.67;1.67;;;;;;;-2.10;100.00;99734.78;5054521;28;20050;-75
2021/04/10 01:09:20;;;;;;;2.25;2.15;;;;;;;-2.15;100.00;99727.00;5053785;28;20056;-74
2021/04/10 01:12:45;;;;;;;1.55;1.55;;;;;;;-2.15;100.00;99724.28;5033848;28;20040;-74
2021/04/10 01:16:07;;;;;;;4.22;3.15;;;;;;;-2.16;100.00;99724.66;5034721;28;20044;-78
2021/04/10 01:19:35;;;;;;;5.38;3.15;;;;;;;-2.18;100.00;99727.78;5045731;28;20041;-75
2021/04/10 01:22:44;;;;;;;4.22;2.05;;;;;;;-2.18;100.00;99721.53;5045415;28;20393;-75
2021/04/10 01:26:26;;;;;;;1.25;1.25;;;;;;;-2.19;100.00;99726.25;5048951;28;20111;-78
2021/04/10 01:29:43;;;;;;;1.70;1.70;;;;;;;-2.15;100.00;99732.47;5060684;28;20059;-79
2021/04/10 01:32:58;;;;;;;2.80;1.88;;;;;;;-2.09;100.00;99724.66;5067586;28;20044;-79
2021/04/10 01:36:02;;;;;;;6.35;1.58;;;;;;;-2.10;100.00;99729.31;5054522;28;20068;-78
2021/04/10 01:39:11;;;;;;;1.77;1.77;;;;;;;-2.11;100.00;99727.00;5054050;28;20048;-78
2021/04/10 01:42:18;;;;;;;3.03;1.90;;;;;;;-2.10;100.00;99723.09;5054228;28;20044;-79
2021/04/10 01:45:23;;;;;;;1.83;1.75;;;;;;;-2.07;100.00;99723.09;5054238;28;20064;-78
2021/04/10 01:48:27;;;;;;;7.07;2.10;;;;;;;-2.04;100.00;99724.25;5054463;28;20504;-78
2021/04/10 01:51:33;;;;;;;2.40;2.30;;;;;;;-2.04;100.00;99716.84;5054139;28;20409;-78
2021/04/10 01:54:38;;;;;;;2.42;2.33;;;;;;;-2.01;100.00;99710.59;5054210;28;20052;-79
2021/04/10 01:57:42;;;;;;;24.80;2.83;;;;;;;-2.03;100.00;99707.47;5054136;28;20072;-78
2021/04/10 02:00:47;;;;;;;1.95;1.95;;;;;;;-2.06;100.00;99718.41;5053277;28;20044;-79
2021/04/10 02:03:51;;;;;;;7.68;2.67;;;;;;;-2.11;100.00;99719.59;5054036;28;20048;-79
2021/04/10 02:06:55;;;;;;;2.40;2.30;;;;;;;-2.14;100.00;99723.09;5053899;28;20107;-79
2021/04/10 02:10:03;;;;;;;1.80;1.80;;;;;;;-2.20;100.00;99730.13;5053989;28;20056;-78
2021/04/10 02:13:08;;;;;;;1.90;1.90;;;;;;;-2.18;100.00;99727.78;5053925;28;20052;-78
2021/04/10 02:16:11;;;;;;;1.60;1.60;;;;;;;-2.19;100.00;99726.25;5053707;28;20385;-78
2021/04/10 02:19:15;;;;;;;2.00;1.90;;;;;;;-2.19;100.00;99723.53;5052891;28;20068;-77
2021/04/10 02:22:20;;;;;;;1.98;1.98;;;;;;;-2.20;100.00;99724.69;5052793;28;20040;-77
2021/04/10 02:25:26;;;;;;;2.03;1.92;;;;;;;-2.20;100.00;99719.22;5053596;28;20059;-77
2021/04/10 02:28:29;;;;;;;1.63;1.52;;;;;;;-2.22;100.00;99718.84;5052831;28;20052;-78
2021/04/10 02:31:43;;;;;;;1.73;1.73;;;;;;;-2.20;100.00;99724.69;5053806;28;20044;-77
2021/04/10 02:34:55;;;;;;;1.45;1.45;;;;;;;-2.26;100.00;99728.97;5053743;28;20048;-78
2021/04/10 02:37:59;;;;;;;1.60;1.60;;;;;;;-2.26;100.00;99726.25;5053575;28;20052;-78
2021/04/10 02:41:13;;;;;;;2.70;2.60;;;;;;;-2.24;100.00;99723.91;5053361;28;20048;-78
2021/04/10 02:44:22;;;;;;;2.85;2.65;;;;;;;-2.19;100.00;99726.25;5052558;28;20056;-77
2021/04/10 02:47:28;;;;;;;3.88;1.90;;;;;;;-2.14;100.00;99725.06;5052405;28;20044;-77
2021/04/10 02:50:33;;;;;;;1.73;1.73;;;;;;;-2.07;100.00;99728.53;5053450;28;20064;-76
2021/04/10 02:53:38;;;;;;;7.53;1.83;;;;;;;-2.02;100.00;99732.81;5053096;28;20059;-77
2021/04/10 02:56:53;;;;;;;2.38;2.20;;;;;;;-1.99;100.00;99738.25;5040817;28;20502;-77
2021/04/10 03:00:00;;;;;;;1.77;1.77;;;;;;;-1.96;100.00;99736.69;5052169;28;20044;-78
2021/04/10 03:03:04;;;;;;;4.88;2.28;;;;;;;-1.93;100.00;99733.97;5052880;28;20477;-77
2021/04/10 03:06:08;;;;;;;3.65;2.20;;;;;;;-1.89;100.00;99733.94;5052971;28;20397;-78
2021/04/10 03:09:12;;;;;;;17.17;2.90;;;;;;;-1.84;100.00;99731.59;5052936;28;20052;-78
2021/04/10 03:12:18;;;;;;;1.60;1.60;;;;;;;-1.75;100.00;99731.94;5052898;28;20040;-78
2021/04/10 03:15:22;;;;;;;1.60;1.60;;;;;;;-1.68;100.00;99726.47;5052908;28;20040;-78
2021/04/10 03:18:27;;;;;;;1.67;1.63;;;;;;;-1.64;100.00;99729.97;5052812;28;20061;-78
2021/04/10 03:21:30;;;;;;;1.65;1.65;;;;;;;-1.63;100.00;99719.81;5052619;28;20048;-78
2021/04/10 03:24:34;;;;;;;2.40;2.30;;;;;;;-1.64;100.00;99727.22;5052810;28;20090;-78
2021/04/10 03:27:37;;;;;;;2.20;2.10;;;;;;;-1.64;100.00;99723.72;5052595;28;20040;-78
2021/04/10 03:30:41;;;;;;;6.60;3.95;;;;;;;-1.68;100.00;99715.56;5052936;28;20801;-77
2021/04/10 03:33:45;;;;;;;9.70;4.90;;;;;;;-1.69;100.00;99722.16;5052439;28;20514;-78
2021/04/10 03:36:48;;;;;;;2.55;2.40;;;;;;;-1.73;100.00;99724.13;5051779;28;20041;-78
2021/04/10 03:39:52;;;;;;;8.20;4.35;;;;;;;-1.78;100.00;99732.75;5054287;28;20048;-78
2021/04/10 03:42:55;;;;;;;3.53;3.08;;;;;;;-1.80;100.00;99720.66;5055851;28;20051;-78
2021/04/10 03:46:01;;;;;;;2.50;2.40;;;;;;;-1.84;100.00;99726.13;5056760;28;20043;-78
2021/04/10 03:49:06;;;;;;;4.85;4.43;;;;;;;-1.81;100.00;99727.28;5056567;28;20048;-78
2021/04/10 03:52:09;;;;;;;9.52;2.97;;;;;;;-1.83;100.00;99727.69;5056576;28;20048;-78
2021/04/10 03:55:13;;;;;;;2.45;2.33;;;;;;;-1.84;100.00;99731.59;5056206;28;20048;-78
2021/04/10 03:58:17;;;;;;;1.98;1.88;;;;;;;-1.85;100.00;99730.03;5056061;28;20044;-78
2021/04/10 04:01:20;;;;;;;5.85;2.97;;;;;;;-1.91;100.00;99723.44;5056643;28;20052;-78
2021/04/10 04:04:23;;;;;;;1.83;1.70;;;;;;;-1.96;100.00;99729.28;5055769;28;20036;-78
2021/04/10 04:07:26;;;;;;;2.03;1.92;;;;;;;-1.98;100.00;99731.66;5055278;28;20040;-78
2021/04/10 04:10:30;;;;;;;2.78;2.42;;;;;;;-1.95;100.00;99735.53;5056240;28;20072;-78
2021/04/10 04:13:33;;;;;;;2.25;2.15;;;;;;;-1.94;100.00;99735.13;5056192;28;20523;-78
2021/04/10 04:16:37;;;;;;;5.63;3.20;;;;;;;-1.91;100.00;99736.31;5055308;28;20683;-78
2021/04/10 04:19:40;;;;;;;6.97;3.92;;;;;;;-1.93;100.00;99727.72;5056043;28;20048;-77
2021/04/10 04:22:43;;;;;;;3.20;3.03;;;;;;;-2.00;100.00;99725.81;5055986;28;20063;-78
2021/04/10 04:25:47;;;;;;;14.85;4.72;;;;;;;-2.05;100.00;99731.66;5055915;28;20040;-78
2021/04/10 04:28:50;;;;;;;4.53;3.20;;;;;;;-2.09;100.00;99733.63;5056243;28;20048;-78
2021/04/10 04:31:53;;;;;;;5.15;3.90;;;;;;;-2.11;100.00;99740.63;5055052;28;20060;-78
2021/04/10 04:34:57;;;;;;;3.50;3.05;;;;;;;-2.15;100.00;99735.19;5055757;28;20048;-78
2021/04/10 04:38:00;;;;;;;4.85;4.32;;;;;;;-2.19;100.00;99728.19;5055656;28;20067;-78
2021/04/10 04:41:04;;;;;;;5.35;3.08;;;;;;;-2.24;100.00;99734.03;5054885;28;20048;-78
2021/04/10 04:44:07;;;;;;;2.50;2.38;;;;;;;-2.32;100.00;99733.28;5055553;28;20044;-78
2021/04/10 04:47:10;;;;;;;3.63;2.20;;;;;;;-2.35;100.00;99734.84;5055479;28;20104;-78
2021/04/10 04:50:14;;;;;;;2.65;2.60;;;;;;;-2.36;100.00;99732.50;5055230;28;20076;-79
2021/04/10 04:53:17;;;;;;;5.38;2.65;;;;;;;-2.36;100.00;99738.72;5055572;28;20048;-78
2021/04/10 04:56:22;;;;;;;3.63;3.33;;;;;;;-2.35;100.00;99747.69;5055338;28;20036;-78
2021/04/10 04:59:25;;;;;;;6.97;3.17;;;;;;;-2.38;100.00;99743.00;5055608;28;20063;-78
2021/04/10 05:02:29;;;;;;;3.15;2.97;;;;;;;-2.39;100.00;99749.66;5055296;28;20052;-78
2021/04/10 05:05:33;;;;;;;2.92;2.78;;;;;;;-2.36;100.00;99746.16;5054271;28;20048;-78
2021/04/10 05:08:36;;;;;;;2.50;1.98;;;;;;;-2.35;100.00;99756.66;5055118;28;20047;-78
2021/04/10 05:11:39;;;;;;;2.05;2.03;;;;;;;-2.34;100.00;99749.25;5054158;28;20052;-77
2021/04/10 05:14:42;;;;;;;2.33;2.15;;;;;;;-2.36;100.00;99748.88;5055099;28;20425;-79
2021/04/10 05:17:46;;;;;;;4.28;3.28;;;;;;;-2.34;100.00;99751.97;5054913;28;20715;-77
2021/04/10 05:20:49;;;;;;;2.38;2.17;;;;;;;-2.31;100.00;99756.63;5054064;28;20048;-78
2021/04/10 05:23:53;;;;;;;2.67;2.47;;;;;;;-2.25;100.00;99752.34;5054009;28;20107;-77
2021/04/10 05:26:57;;;;;;;3.28;3.15;;;;;;;-2.19;100.00;99756.25;5054682;28;20051;-77
2021/04/10 05:30:00;;;;;;;5.45;3.13;;;;;;;-2.12;100.00;99756.22;5054896;28;20378;-77
2021/04/10 05:33:04;;;;;;;2.78;2.67;;;;;;;-2.11;100.00;99749.59;5053607;28;20056;-75
2021/04/10 05:36:08;;;;;;;3.40;3.15;;;;;;;-2.11;100.00;99752.31;5053193;28;20398;-75
2021/04/10 05:39:11;;;;;;;4.63;4.20;;;;;;;-2.06;100.00;99756.59;5053066;28;20047;-75
2021/04/10 05:42:15;;;;;;;4.53;3.33;;;;;;;-1.97;100.00;99760.47;5052749;28;20106;-75
2021/04/10 05:45:18;;;;;;;2.67;2.38;;;;;;;-1.85;100.00;99765.53;5051843;28;20048;-75
2021/04/10 05:48:21;;;;;;;5.72;3.28;;;;;;;-1.74;100.00;99766.28;5052835;28;20043;-76
2021/04/10 05:51:25;;;;;;;4.00;3.70;;;;;;;-1.58;100.00;99761.13;5052817;28;20405;-75
2021/04/10 05:54:29;;;;;;;12.48;4.32;;;;;;;-1.43;100.00;99766.53;5054599;28;20672;-77
2021/04/10 05:57:33;;;;;;;3.85;3.13;;;;;;;-1.29;100.00;99769.19;5053455;28;20063;-76
2021/04/10 06:00:36;;;;;;;9.20;4.70;;;;;;;-1.14;100.00;99778.88;5054235;28;20048;-75
2021/04/10 06:03:40;;;;;;;3.83;2.70;;;;;;;-1.02;100.00;99775.69;5047570;28;20045;-75
2021/04/10 06:06:43;;;;;;;10.48;3.10;;;;;;;-0.92;100.00;99778.34;5053294;28;20040;-74
2021/04/10 06:09:47;;;;;;;2.33;2.15;;;;;;;-0.77;100.00;99792.69;5053775;28;20512;-77
2021/04/10 06:12:51;;;;;;;12.88;3.38;;;;;;;-0.61;100.00;99790.25;5053214;28;20048;-76
2021/04/10 06:15:54;;;;;;;9.93;3.10;;;;;;;-0.48;100.00;99794.06;5053970;28;20047;-77
2021/04/10 06:18:57;;;;;;;6.28;4.45;;;;;;;-0.41;100.00;99804.94;5053033;28;20053;-75
2021/04/10 06:22:01;;;;;;;3.17;3.00;;;;;;;-0.32;100.00;99796.25;5053614;28;20048;-76
2021/04/10 06:25:06;;;;;;;3.45;3.13;;;;;;;-0.13;100.00;99801.19;5054170;28;20040;-77
2021/04/10 06:28:10;;;;;;;9.18;3.72;;;;;;;0.05;100.00;99804.53;5053612;28;20048;-76
2021/04/10 06:31:13;;;;;;;7.10;3.58;;;;;;;0.22;100.00;99802.81;5053290;28;20520;-76
2021/04/10 06:34:16;;;;;;;10.15;4.32;;;;;;;0.34;100.00;99800.34;5052690;28;20046;-77
2021/04/10 06:37:19;;;;;;;5.05;3.05;;;;;;;0.52;100.00;99794.66;5052835;28;20048;-77
2021/04/10 06:40:24;;;;;;;7.75;4.22;;;;;;;0.65;100.00;99792.94;5052677;28;20063;-77
2021/04/10 06:43:27;;;;;;;11.55;4.05;;;;;;;0.80;100.00;99793.53;5053408;28;20063;-77
2021/04/10 06:46:34;;;;;;;4.05;3.42;;;;;;;0.94;100.00;99793.34;5053151;28;20051;-76
2021/04/10 06:49:38;;;;;;;5.75;2.05;;;;;;;1.01;100.00;99798.72;5053338;28;20060;-76
2021/04/10 06:52:43;;;;;;;5.03;2.80;;;;;;;1.07;100.00;99797.84;5053488;28;20492;-77
2021/04/10 06:55:56;;;;;;;3.30;2.83;;;;;;;1.14;100.00;99797.75;5052430;28;20047;-76
2021/04/10 06:59:20;;;;;;;14.95;3.95;;;;;;;1.24;100.00;99801.53;5053348;28;20047;-77
2021/04/10 07:02:24;;;;;;;2.97;2.72;;;;;;;1.41;100.00;99804.00;5053005;28;20056;-77
2021/04/10 07:05:29;;;;;;;4.68;3.22;;;;;;;1.57;100.00;99802.59;5053071;28;20387;-76
2021/04/10 07:08:33;;;;;;;3.08;2.78;;;;;;;1.75;100.00;99808.59;5052946;28;20052;-76
2021/04/10 07:11:37;;;;;;;6.43;4.60;;;;;;;1.95;100.00;99801.22;5051878;28;20476;-76
2021/04/10 07:14:40;;;;;;;11.63;3.55;;;;;;;2.14;100.00;99812.22;5052573;28;20040;-77
2021/04/10 07:17:49;;;;;;;20.50;3.33;;;;;;;2.27;100.00;99801.41;5053028;28;20044;-77
2021/04/10 07:21:21;;;;;;;6.47;3.80;;;;;;;2.37;100.00;99807.88;5052725;28;20059;-76
2021/04/10 07:24:35;;;;;;;11.77;2.80;;;;;;;2.45;100.00;99801.81;5053124;28;20405;-76
2021/04/10 07:27:38;;;;;;;13.38;4.35;;;;;;;2.57;100.00;99812.22;5051847;28;20036;-76
2021/04/10 07:31:03;;;;;;;6.43;2.97;;;;;;;2.65;100.00;99810.88;5052581;28;20052;-76
2021/04/10 07:34:07;;;;;;;9.38;4.32;;;;;;;2.71;100.00;99809.16;5052128;28;20068;-77
2021/04/10 07:37:11;;;;;;;7.78;4.40;;;;;;;2.78;100.00;99809.03;5051321;28;20102;-77
2021/04/10 07:40:24;;;;;;;8.25;5.22;;;;;;;2.86;100.00;99810.44;5052731;28;20043;-78
2021/04/10 07:43:30;;;;;;;8.40;3.15;;;;;;;2.93;100.00;99810.28;5052737;28;20079;-78
2021/04/10 07:46:34;;;;;;;6.82;4.55;;;;;;;2.94;100.00;99811.84;5052386;28;20044;-78
2021/04/10 07:49:37;;;;;;;4.57;3.45;;;;;;;2.98;100.00;99801.53;5051679;28;20064;-78
2021/04/10 07:52:41;;;;;;;9.60;3.33;;;;;;;3.09;100.00;99812.31;5052585;28;20048;-78
2021/04/10 07:55:45;;;;;;;11.18;3.72;;;;;;;3.17;100.00;99813.72;5052503;28;20051;-79
2021/04/10 07:58:48;;;;;;;3.22;2.92;;;;;;;3.24;100.00;99810.03;5051575;28;20044;-78
2021/04/10 08:01:52;;;;;;;9.75;3.38;;;;;;;3.32;100.00;99808.66;5052379;28;20048;-78
2021/04/10 08:05:00;;;;;;;4.13;2.75;;;;;;;3.44;100.00;99811.53;5052351;28;20044;-79
2021/04/10 08:08:04;;;;;;;5.75;2.25;;;;;;;3.55;100.00;99800.28;5052335;28;20052;-79
2021/04/10 08:11:08;;;;;;;7.90;2.70;;;;;;;3.73;100.00;99800.59;5052615;28;20044;-77
2021/04/10 08:14:14;;;;;;;2.00;1.48;;;;;;;3.93;100.00;99795.78;5051573;28;20063;-79
2021/04/10 08:17:37;;;;;;;3.15;2.80;;;;;;;4.14;100.00;99797.19;5051920;28;20056;-76
2021/04/10 08:20:48;;;;;;;2.47;2.22;;;;;;;4.22;100.00;99787.56;5052093;28;20511;-78
2021/04/10 08:23:52;;;;;;;1.70;1.60;;;;;;;4.27;100.00;99793.31;5052310;28;20393;-78
2021/04/10 08:27:09;;;;;;;2.20;2.10;;;;;;;4.30;100.00;99789.69;5053455;28;20048;-79
2021/04/10 08:30:13;;;;;;;3.78;1.75;;;;;;;4.38;100.00;99780.03;5055112;28;20104;-78
2021/04/10 08:33:16;;;;;;;3.10;1.58;;;;;;;4.51;100.00;99786.34;5055475;28;20060;-79
2021/04/10 08:36:22;;;;;;;2.67;1.75;;;;;;;4.83;100.00;99781.94;5055667;28;20052;-79
2021/04/10 08:39:35;;;;;;;2.47;2.28;;;;;;;5.17;100.00;99780.09;5055827;28;20044;-77
2021/04/10 08:42:42;;;;;;;2.30;1.73;;;;;;;5.54;100.00;99775.78;5054867;28;20048;-79
2021/04/10 08:45:50;;;;;;;2.25;1.67;;;;;;;5.80;100.00;99782.84;5055488;28;20044;-78
2021/04/10 08:48:57;;;;;;;8.45;1.67;;;;;;;6.00;100.00;99777.81;5055283;28;20516;-78
2021/04/10 08:52:06;;;;;;;1.20;1.15;;;;;;;6.13;100.00;99784.09;5055561;28;20048;-77
2021/04/10 08:55:12;;;;;;;5.88;2.05;;;;;;;6.20;100.00;99787.81;5054641;28;20052;-76
2021/04/10 08:58:23;;;;;;;2.30;1.80;;;;;;;6.32;100.00;99778.72;5055322;28;20044;-76
2021/04/10 09:01:31;;;;;;;3.92;1.15;;;;;;;6.20;100.00;99783.06;5054538;28;20051;-76
2021/04/10 09:05:09;;;;;;;2.05;1.38;;;;;;;5.85;100.00;99787.81;5054481;28;20052;-77
2021/04/10 09:08:26;;;;;;;7.75;1.70;;;;;;;5.81;100.00;99789.88;5054693;28;20056;-76
2021/04/10 09:11:30;;;;;;;2.85;1.42;;;;;;;5.87;100.00;99777.09;5054872;28;20051;-78
2021/04/10 09:14:44;;;;;;;1.35;1.25;;;;;;;5.98;100.00;99780.25;5054997;28;20410;-78
2021/04/10 09:17:55;;;;;;;2.90;1.38;;;;;;;6.20;100.00;99783.06;5054027;28;20422;-79
2021/04/10 09:21:10;;;;;;;7.30;2.67;;;;;;;6.51;100.00;99781.19;5054766;28;21276;-78
2021/04/10 09:24:16;;;;;;;3.60;2.45;;;;;;;6.84;100.00;99778.81;5054711;28;20055;-78
2021/04/10 09:27:28;;;;;;;4.13;1.55;;;;;;;7.04;100.00;99784.00;5053946;28;20393;-78
2021/04/10 09:30:40;;;;;;;3.80;1.80;;;;;;;7.17;100.00;99784.69;5053861;28;20052;-78
2021/04/10 09:33:44;;;;;;;0.85;0.85;;;;;;;7.23;100.00;99791.97;5053789;28;20060;-78
2021/04/10 09:36:48;;;;;;;4.40;1.45;;;;;;;7.20;100.00;99784.53;5054237;28;20044;-79
2021/04/10 09:40:03;;;;;;;3.42;1.17;;;;;;;7.10;100.00;99788.50;5053963;28;20048;-78
2021/04/10 09:43:06;;;;;;;5.65;2.00;;;;;;;7.31;100.00;99779.38;5054501;28;20060;-79
2021/04/10 09:46:33;;;;;;;2.05;1.52;;;;;;;7.65;100.00;99778.41;5053628;28;20064;-78
2021/04/10 09:49:37;;;;;;;6.05;1.67;;;;;;;7.86;100.00;99777.53;5054383;28;20413;-78
2021/04/10 09:52:42;;;;;;;1.45;0.88;;;;;;;7.92;100.00;99780.47;5054169;28;20397;-82
2021/04/10 09:56:19;;;;;;;3.60;0.95;;;;;;;7.90;100.00;99769.84;5053729;28;20044;-84
2021/04/10 09:59:25;;;;;;;3.63;2.03;;;;;;;7.95;100.00;99769.22;5036505;28;20047;-82
2021/04/10 10:02:28;;;;;;;5.07;1.45;;;;;;;8.02;100.00;99773.72;5053795;28;20052;-84
2021/04/10 10:05:34;;;;;;;4.93;1.58;;;;;;;7.99;100.00;99777.41;5054739;28;20056;-88
2021/04/10 10:08:37;;;;;;;2.67;1.17;;;;;;;7.87;100.00;99767.22;5054550;28;20044;-89
2021/04/10 10:11:55;;;;;;;2.40;1.42;;;;;;;7.57;100.00;99785.47;5055333;28;20048;-87
2021/04/10 10:14:59;;;;;;;2.65;1.45;;;;;;;7.02;100.00;99784.44;5055455;28;20044;-87
2021/04/10 10:18:22;;;;;;;2.92;1.40;;;;;;;6.37;100.00;99780.91;5054018;28;20040;-87
2021/04/10 10:21:25;;;;;;;10.18;2.72;;;;;;;5.99;100.00;99781.03;5053835;28;20055;-89
2021/04/10 10:24:29;;;;;;;6.07;1.85;;;;;;;5.73;100.00;99783.06;5054005;28;20055;-85
2021/04/10 10:27:37;;;;;;;1.40;1.30;;;;;;;5.39;100.00;99774.69;5053737;28;20048;-84
2021/04/10 10:30:41;;;;;;;5.22;1.52;;;;;;;5.17;100.00;99773.81;5055282;28;20055;-89
2021/04/10 10:33:45;;;;;;;2.67;1.80;;;;;;;5.06;100.00;99773.34;5054919;28;20056;-88
2021/04/10 10:36:51;;;;;;;2.25;1.65;;;;;;;4.94;100.00;99779.59;5053738;28;20044;-84
2021/04/10 10:39:55;;;;;;;4.03;1.75;;;;;;;4.71;100.00;99771.63;5053196;28;20043;-77
2021/04/10 10:42:58;;;;;;;1.50;1.45;;;;;;;4.50;100.00;99779.28;5053327;28;20052;-77
2021/04/10 10:46:04;;;;;;;3.08;1.85;;;;;;;4.41;100.00;99784.69;5052865;28;20044;-78
2021/04/10 10:49:09;;;;;;;1.67;1.58;;;;;;;4.14;100.00;99789.72;5052454;28;20040;-78
2021/04/10 10:52:17;;;;;;;2.85;1.55;;;;;;;3.94;100.00;99791.84;5051854;28;20044;-78
2021/04/10 10:55:21;;;;;;;3.35;2.42;;;;;;;3.88;100.00;99790.78;5052023;28;20056;-79
2021/04/10 10:58:29;;;;;;;1.77;1.40;;;;;;;3.83;100.00;99788.56;5051606;28;20043;-79
2021/04/10 11:01:42;;;;;;;4.72;2.80;;;;;;;3.86;100.00;99790.44;5051823;28;20433;-79
2021/04/10 11:04:47;;;;;;;1.95;1.85;;;;;;;3.89;100.00;99791.56;5051429;28;20048;-79
2021/04/10 11:07:51;;;;;;;4.60;1.73;;;;;;;3.91;100.00;99786.41;5051291;28;20051;-79
2021/04/10 11:10:56;;;;;;;3.25;2.35;;;;;;;3.90;100.00;99782.88;5052194;28;20052;-78
2021/04/10 11:14:00;;;;;;;6.43;1.92;;;;;;;3.76;100.00;99783.22;5051896;28;20052;-78
2021/04/10 11:17:04;;;;;;;8.95;3.80;;;;;;;3.68;100.00;99788.13;5051982;28;20051;-78
2021/04/10 11:20:34;;;;;;;7.72;4.13;;;;;;;3.61;100.00;99793.03;5052190;28;20048;-78
2021/04/10 11:23:56;;;;;;;2.70;2.50;;;;;;;3.55;100.00;99800.28;5051963;28;20047;-78
2021/04/10 11:27:12;;;;;;;8.00;3.08;;;;;;;3.37;100.00;99808.16;5051379;28;20056;-78
2021/04/10 11:30:16;;;;;;;1.92;1.73;;;;;;;3.07;100.00;99809.97;5052275;28;20047;-78
2021/04/10 11:33:31;;;;;;;5.05;2.97;;;;;;;2.83;100.00;99811.28;5051527;28;20052;-78
2021/04/10 11:36:57;;;;;;;4.68;2.30;;;;;;;2.66;100.00;99800.66;5050665;28;20496;-78
2021/04/10 11:40:21;;;;;;;4.50;3.38;;;;;;;2.62;100.00;99806.19;5049753;28;20056;-78
2021/04/10 11:43:25;;;;;;;6.13;2.20;;;;;;;2.63;100.00;99810.50;5050983;28;20401;-78
2021/04/10 11:46:29;;;;;;;1.63;1.58;;;;;;;2.59;100.00;99812.56;5049660;28;20048;-76
2021/04/10 11:49:32;;;;;;;3.45;1.83;;;;;;;2.57;100.00;99809.47;5051516;28;20044;-77
2021/04/10 11:52:37;;;;;;;16.75;5.20;;;;;;;2.57;100.00;99801.22;5050626;28;20052;-77
2021/04/10 11:55:40;;;;;;;3.40;2.35;;;;;;;2.55;100.00;99814.63;5050688;28;20524;-78
2021/04/10 11:58:44;;;;;;;3.22;2.92;;;;;;;2.56;100.00;99810.66;5050733;28;20414;-78
2021/04/10 12:01:51;;;;;;;3.45;2.00;;;;;;;2.58;100.00;99813.75;5054417;28;20064;-78
2021/04/10 12:04:54;;;;;;;2.95;1.75;;;;;;;2.61;100.00;99814.88;5053820;28;20052;-77
2021/04/10 12:08:13;;;;;;;2.10;1.98;;;;;;;2.58;100.00;99822.00;5054402;28;20048;-78
2021/04/10 12:11:17;;;;;;;1.65;1.55;;;;;;;2.55;100.00;99811.88;5053265;28;20048;-78
2021/04/10 12:14:20;;;;;;;3.80;2.10;;;;;;;2.54;100.00;99820.50;5054549;28;20047;-78
2021/04/10 12:17:24;;;;;;;5.95;2.60;;;;;;;2.47;100.00;99820.66;5054291;28;20048;-77
2021/04/10 12:20:27;;;;;;;1.80;1.70;;;;;;;2.45;100.00;99821.06;5054283;28;20044;-78
2021/04/10 12:23:32;;;;;;;2.33;2.20;;;;;;;2.43;100.00;99817.97;5035115;28;20398;-78
2021/04/10 12:26:37;;;;;;;4.18;2.50;;;;;;;2.42;100.00;99819.19;5034013;28;20044;-78
2021/04/10 12:29:40;;;;;;;10.02;4.95;;;;;;;2.41;100.00;99823.09;5034050;28;20072;-77
2021/04/10 12:32:43;;;;;;;3.92;3.42;;;;;;;2.36;100.00;99826.34;5056866;28;20060;-78
2021/04/10 12:35:47;;;;;;;7.57;3.35;;;;;;;2.33;100.00;99829.16;5035086;28;20049;-78
2021/04/10 12:38:51;;;;;;;5.13;2.90;;;;;;;2.26;100.00;99816.31;5035099;28;20045;-78
2021/04/10 12:41:55;;;;;;;4.53;2.88;;;;;;;2.28;100.00;99816.69;5035336;28;20044;-78
2021/04/10 12:44:59;;;;;;;2.47;1.80;;;;;;;2.41;100.00;99820.38;5035440;28;20078;-78
2021/04/10 12:48:03;;;;;;;5.95;2.53;;;;;;;2.55;100.00;99819.31;5053015;28;20043;-78
2021/04/10 12:51:07;;;;;;;3.85;2.58;;;;;;;2.59;100.00;99818.06;5034431;28;20056;-78
2021/04/10 12:54:11;;;;;;;2.78;2.58;;;;;;;2.65;100.00;99819.13;5034400;28;20052;-78
2021/04/10 12:57:14;;;;;;;2.40;2.22;;;;;;;2.67;100.00;99824.19;5034407;28;20516;-78
2021/04/10 13:00:19;;;;;;;2.35;2.10;;;;;;;2.66;100.00;99819.91;5052295;28;20044;-78
2021/04/10 13:03:23;;;;;;;4.18;2.08;;;;;;;2.65;100.00;99819.13;5053756;28;20067;-78
2021/04/10 13:06:27;;;;;;;6.97;2.45;;;;;;;2.65;100.00;99816.38;5054282;28;20516;-79
2021/04/10 13:09:31;;;;;;;2.85;2.10;;;;;;;2.65;100.00;99816.38;5053778;28;20044;-78
2021/04/10 13:12:34;;;;;;;3.90;2.83;;;;;;;2.66;100.00;99820.69;5053418;28;20044;-78
2021/04/10 13:15:38;;;;;;;2.30;1.85;;;;;;;2.62;100.00;99817.19;5053685;28;20154;-78
2021/04/10 13:18:42;;;;;;;2.88;2.45;;;;;;;2.67;100.00;99819.47;5053729;28;20040;-78
2021/04/10 13:21:46;;;;;;;2.78;2.38;;;;;;;2.65;100.00;99821.09;5053658;28;20043;-79
2021/04/10 13:24:50;;;;;;;6.65;2.10;;;;;;;2.61;100.00;99812.13;5054584;28;20051;-78
2021/04/10 13:27:54;;;;;;;4.70;2.20;;;;;;;2.52;100.00;99817.41;5053647;28;20056;-78
2021/04/10 13:31:00;;;;;;;2.42;2.15;;;;;;;2.42;100.00;99813.69;5053578;28;20508;-78
2021/04/10 13:34:03;;;;;;;1.98;1.85;;;;;;;2.39;100.00;99820.00;5053395;28;20075;-78
2021/04/10 13:37:07;;;;;;;7.00;2.28;;;;;;;2.40;100.00;99813.34;5053539;28;20511;-78
2021/04/10 13:40:10;;;;;;;8.02;3.50;;;;;;;2.36;100.00;99809.84;5051697;28;20048;-78
2021/04/10 13:43:14;;;;;;;9.95;4.47;;;;;;;2.33;100.00;99807.19;5033855;28;20140;-78
2021/04/10 13:46:17;;;;;;;6.22;2.85;;;;;;;2.25;100.00;99817.53;5051679;28;20393;-78
2021/04/10 13:49:21;;;;;;;3.15;2.83;;;;;;;2.13;100.00;99820.88;5053388;28;20044;-78
2021/04/10 13:52:24;;;;;;;9.55;2.90;;;;;;;2.04;100.00;99820.63;5053590;28;20076;-78
2021/04/10 13:55:28;;;;;;;22.13;6.75;;;;;;;1.99;100.00;99818.41;5052416;28;20048;-78
2021/04/10 13:58:32;;;;;;;6.53;3.03;;;;;;;1.95;100.00;99821.19;5051193;28;20048;-78
2021/04/10 14:01:35;;;;;;;11.10;5.13;;;;;;;1.96;100.00;99816.47;5053011;28;20060;-78
2021/04/10 14:04:57;;;;;;;5.45;3.40;;;;;;;2.03;100.00;99814.41;5052297;28;20047;-79
2021/04/10 14:08:02;;;;;;;;;;;;;;;2.15;100.00;99818.50;5052849;28;20044;-79
2021/04/10 14:11:07;;;;;;;2.55;2.35;;;;;;;2.21;100.00;99819.53;5054152;28;19916;-78
2021/04/10 14:14:10;;;;;;;1.52;1.52;;;;;;;2.31;100.00;99818.59;5052937;28;20044;-77
2021/04/10 14:17:14;;;;;;;3.47;2.20;;;;;;;2.37;100.00;99814.16;5053172;28;20046;-77
2021/04/10 14:20:25;;;;;;;2.40;2.20;;;;;;;2.57;100.00;99808.69;5052756;28;20044;-78
2021/04/10 14:40:22;;;;;;;2.55;2.20;;;;;;;3.38;100.00;99791.22;5129702;27;20371;-76
2021/04/10 14:43:26;;;;;;;3.55;2.35;;;;;;;3.38;100.00;99791.22;5130386;28;20042;-79
2021/04/10 14:46:29;;;;;;;1.83;1.20;;;;;;;3.41;100.00;99789.59;5118146;28;20050;-77
2021/04/10 14:49:33;;;;;;;1.60;1.52;;;;;;;3.48;100.00;99783.91;5130483;28;20039;-78